Time;durP1;ratioP1;P1;durP2;ratioP2;P2;SDS_P1;SDS_P2;PMS_P1;PMS_P2;Temp;Humidity;BMP_temperature;BMP_pressure;BME280_temperature;BME280_humidity;BME280_pressure;Samples;Min_cycle;Max_cycle;Signal;HPM_P1;HPM_P2
2021/09/25 00:01:51;;;;;;;19.10;6.75;;;17.90;90.60;;;;;;5081188;28;20110;-63
2021/09/25 00:04:17;;;;;;;12.82;7.28;;;17.90;90.60;;;;;;5077344;28;20405;-62
2021/09/25 00:06:42;;;;;;;15.77;6.90;;;17.90;90.60;;;;;;5089036;28;20030;-62
2021/09/25 00:09:08;;;;;;;11.63;7.38;;;17.90;90.70;;;;;;5067342;28;20564;-63
2021/09/25 00:11:34;;;;;;;17.67;7.18;;;17.90;90.70;;;;;;5057026;28;20463;-62
2021/09/25 00:13:59;;;;;;;11.50;7.20;;;17.80;90.60;;;;;;5087687;28;20043;-62
2021/09/25 00:16:27;;;;;;;13.82;7.55;;;17.80;90.70;;;;;;5075519;28;20054;-63
2021/09/25 00:18:57;;;;;;;12.23;7.90;;;17.80;90.70;;;;;;5083824;28;20049;-63
2021/09/25 00:21:22;;;;;;;12.13;7.00;;;17.80;90.70;;;;;;5055684;28;20028;-61
2021/09/25 00:23:48;;;;;;;15.02;7.50;;;17.80;90.70;;;;;;5091577;28;20321;-62
2021/09/25 00:26:14;;;;;;;10.25;7.35;;;17.80;90.70;;;;;;5061727;28;20418;-62
2021/09/25 00:28:39;;;;;;;11.90;8.20;;;17.80;90.70;;;;;;5077492;28;20133;-63
2021/09/25 00:31:05;;;;;;;13.65;7.43;;;17.80;90.70;;;;;;5063839;28;20035;-63
2021/09/25 00:33:30;;;;;;;13.55;7.80;;;17.80;90.70;;;;;;5079491;28;20039;-62
2021/09/25 00:35:56;;;;;;;10.07;7.18;;;17.70;90.80;;;;;;5073618;28;20024;-63
2021/09/25 00:38:21;;;;;;;13.35;8.20;;;17.70;90.80;;;;;;5076512;28;20225;-62
2021/09/25 00:40:47;;;;;;;11.13;7.60;;;17.70;90.80;;;;;;5078197;28;20032;-63
2021/09/25 00:43:12;;;;;;;12.48;7.32;;;17.70;90.90;;;;;;5078584;28;20518;-63
2021/09/25 00:45:38;;;;;;;8.85;6.95;;;17.70;90.90;;;;;;5060486;28;20035;-62
2021/09/25 00:48:03;;;;;;;9.23;7.03;;;17.70;90.90;;;;;;5086007;28;20028;-62
2021/09/25 00:50:29;;;;;;;9.80;7.22;;;17.70;90.90;;;;;;5081109;28;20040;-62
2021/09/25 00:52:55;;;;;;;10.88;6.90;;;17.70;91.00;;;;;;5088077;28;20425;-62
2021/09/25 00:55:21;;;;;;;10.30;6.53;;;17.60;91.00;;;;;;5070895;28;20602;-62
2021/09/25 00:57:49;;;;;;;13.45;6.97;;;17.60;91.00;;;;;;5089176;28;20020;-63
2021/09/25 01:00:15;;;;;;;9.70;7.10;;;17.70;91.10;;;;;;5059160;28;20020;-62
2021/09/25 01:02:40;;;;;;;9.07;6.43;;;17.60;91.10;;;;;;5078639;28;20024;-62
2021/09/25 01:05:06;;;;;;;12.85;7.05;;;17.60;91.10;;;;;;5096876;28;20019;-63
2021/09/25 01:07:31;;;;;;;9.77;6.80;;;17.60;91.10;;;;;;5087275;28;20498;-62
2021/09/25 01:09:57;;;;;;;11.73;7.57;;;17.60;91.10;;;;;;5091882;28;20032;-62
2021/09/25 01:12:22;;;;;;;10.65;7.40;;;17.60;91.20;;;;;;5054328;28;20031;-63
2021/09/25 01:14:48;;;;;;;11.15;8.10;;;17.60;91.20;;;;;;5079407;28;20135;-62
2021/09/25 01:17:14;;;;;;;8.02;7.20;;;17.60;91.20;;;;;;5071000;28;20036;-62
2021/09/25 01:19:40;;;;;;;10.85;7.65;;;17.60;91.20;;;;;;5073312;28;20060;-63
2021/09/25 01:22:06;;;;;;;12.30;7.05;;;17.50;91.20;;;;;;5075942;28;20108;-63
2021/09/25 01:24:32;;;;;;;10.90;7.47;;;17.50;91.50;;;;;;5064681;28;20403;-62
2021/09/25 01:26:58;;;;;;;8.40;7.03;;;17.50;91.30;;;;;;5085333;28;20032;-63
2021/09/25 01:29:24;;;;;;;9.55;7.40;;;17.50;91.30;;;;;;5086058;28;20051;-63
2021/09/25 01:31:49;;;;;;;8.80;7.00;;;17.50;91.30;;;;;;5049024;28;20024;-63
2021/09/25 01:34:15;;;;;;;9.65;7.53;;;17.50;91.40;;;;;;5077638;28;20032;-63
2021/09/25 01:36:40;;;;;;;10.18;7.97;;;17.50;91.40;;;;;;5084391;28;20063;-62
2021/09/25 01:39:06;;;;;;;9.20;7.10;;;17.50;91.30;;;;;;5087457;28;20032;-62
2021/09/25 01:41:31;;;;;;;12.32;7.82;;;17.40;91.30;;;;;;5084137;28;20439;-62
2021/09/25 01:43:57;;;;;;;12.88;7.65;;;17.40;91.40;;;;;;5077286;28;20044;-62
2021/09/25 01:46:22;;;;;;;9.20;6.97;;;17.40;91.40;;;;;;5076500;28;20414;-63
2021/09/25 01:48:48;;;;;;;8.45;7.03;;;17.40;91.50;;;;;;5073855;28;20032;-62
2021/09/25 01:51:14;;;;;;;12.02;7.13;;;17.40;91.40;;;;;;5080420;28;20033;-63
2021/09/25 01:53:40;;;;;;;10.65;6.75;;;17.40;91.50;;;;;;5057919;28;20380;-63
2021/09/25 01:56:13;;;;;;;8.57;6.65;;;17.40;91.50;;;;;;5078366;28;20067;-63
2021/09/25 01:58:39;;;;;;;11.13;7.03;;;17.40;91.50;;;;;;5079618;28;20040;-63
2021/09/25 02:01:05;;;;;;;9.45;7.57;;;17.30;91.50;;;;;;5078463;28;20040;-62
2021/09/25 02:03:35;;;;;;;10.02;7.55;;;17.30;91.50;;;;;;5079136;28;20040;-63
2021/09/25 02:06:01;;;;;;;14.18;7.60;;;17.40;91.50;;;;;;5077228;28;20226;-62
2021/09/25 02:08:26;;;;;;;9.63;7.40;;;17.30;91.50;;;;;;5081438;28;20029;-63
2021/09/25 02:10:52;;;;;;;8.73;7.18;;;17.30;91.50;;;;;;5071735;28;20091;-62
2021/09/25 02:13:18;;;;;;;10.32;7.07;;;17.30;91.50;;;;;;5060128;28;20027;-63
2021/09/25 02:15:43;;;;;;;8.60;6.57;;;17.30;91.50;;;;;;5077104;28;20365;-62
2021/09/25 02:18:09;;;;;;;9.05;7.53;;;17.30;91.60;;;;;;5080254;28;20086;-62
2021/09/25 02:20:34;;;;;;;9.02;6.18;;;17.30;91.60;;;;;;5062999;28;20403;-63
2021/09/25 02:22:59;;;;;;;10.18;6.70;;;17.30;91.60;;;;;;5057828;28;20383;-62
2021/09/25 02:25:25;;;;;;;8.30;6.78;;;17.20;91.50;;;;;;5083827;28;20048;-62
2021/09/25 02:27:51;;;;;;;12.55;6.90;;;17.20;91.60;;;;;;5080214;28;20040;-62
2021/09/25 02:30:18;;;;;;;7.97;6.28;;;17.20;91.60;;;;;;5079808;28;20058;-63
2021/09/25 02:32:44;;;;;;;10.13;6.57;;;17.20;91.60;;;;;;5077398;28;20035;-62
2021/09/25 02:35:11;;;;;;;10.60;6.60;;;17.20;91.60;;;;;;5062462;28;20028;-63
2021/09/25 02:37:36;;;;;;;8.57;5.93;;;17.20;91.60;;;;;;5057823;28;20251;-62
2021/09/25 02:40:03;;;;;;;9.35;7.05;;;17.20;91.60;;;;;;5085759;28;20230;-63
2021/09/25 02:42:28;;;;;;;9.75;7.43;;;17.10;91.60;;;;;;5064953;28;20039;-62
2021/09/25 02:44:54;;;;;;;13.07;6.55;;;17.20;91.60;;;;;;5086646;28;20032;-62
2021/09/25 02:47:19;;;;;;;11.13;6.70;;;17.20;91.70;;;;;;5083117;28;20024;-62
2021/09/25 02:49:45;;;;;;;7.88;6.38;;;17.10;91.60;;;;;;5072893;28;20040;-62
2021/09/25 02:52:10;;;;;;;11.35;6.03;;;17.10;91.70;;;;;;5079608;28;20039;-63
2021/09/25 02:54:36;;;;;;;7.25;6.10;;;17.10;91.70;;;;;;5082804;28;20338;-63
2021/09/25 02:57:02;;;;;;;11.93;5.88;;;17.10;91.70;;;;;;5077651;28;20028;-62
2021/09/25 02:59:28;;;;;;;9.00;6.25;;;17.10;91.70;;;;;;5084932;28;20429;-63
2021/09/25 03:01:53;;;;;;;11.10;6.47;;;17.10;91.70;;;;;;5077268;28;20449;-63
2021/09/25 03:04:19;;;;;;;8.57;6.07;;;17.00;91.70;;;;;;5087614;28;20059;-63
2021/09/25 03:06:44;;;;;;;16.92;6.68;;;17.00;91.70;;;;;;5083868;28;20027;-63
2021/09/25 03:09:10;;;;;;;14.00;6.53;;;17.00;91.70;;;;;;5081072;28;20087;-62
2021/09/25 03:11:35;;;;;;;9.45;6.00;;;17.00;91.70;;;;;;5063558;28;20060;-62
2021/09/25 03:14:01;;;;;;;8.82;7.00;;;17.00;91.70;;;;;;5083464;28;20080;-63
2021/09/25 03:16:26;;;;;;;11.52;7.32;;;17.00;91.80;;;;;;5078910;28;20119;-63
2021/09/25 03:18:52;;;;;;;10.43;7.47;;;17.00;91.80;;;;;;5077100;28;20494;-63
2021/09/25 03:21:17;;;;;;;9.82;7.05;;;17.00;91.80;;;;;;5080863;28;20039;-62
2021/09/25 03:23:43;;;;;;;8.90;6.80;;;16.90;91.80;;;;;;5085493;28;20055;-62
2021/09/25 03:26:08;;;;;;;9.57;7.68;;;16.90;91.80;;;;;;5047429;28;20525;-62
2021/09/25 03:28:34;;;;;;;9.32;7.25;;;16.90;91.80;;;;;;5058562;28;20120;-62
2021/09/25 03:30:59;;;;;;;11.77;7.70;;;16.90;91.80;;;;;;5083660;28;20094;-62
2021/09/25 03:33:25;;;;;;;9.70;7.55;;;16.90;91.80;;;;;;5082653;28;20060;-62
2021/09/25 03:35:50;;;;;;;11.57;7.28;;;16.80;91.80;;;;;;5072302;28;20450;-62
2021/09/25 03:38:19;;;;;;;10.27;7.07;;;16.80;91.80;;;;;;5080892;28;20028;-62
2021/09/25 03:40:49;;;;;;;13.13;6.32;;;16.80;91.80;;;;;;5077004;28;20098;-62
2021/09/25 03:43:14;;;;;;;9.25;6.15;;;16.80;91.80;;;;;;5049172;28;20047;-62
2021/09/25 03:45:40;;;;;;;10.98;7.05;;;16.80;91.80;;;;;;5076331;28;20408;-62
2021/09/25 03:48:06;;;;;;;8.00;6.47;;;16.70;91.80;;;;;;5062791;28;20036;-63
2021/09/25 03:50:32;;;;;;;12.10;6.72;;;16.80;91.80;;;;;;5061351;28;20032;-62
2021/09/25 03:52:58;;;;;;;8.48;6.85;;;16.70;91.80;;;;;;5075712;28;20037;-62
2021/09/25 03:55:23;;;;;;;8.52;6.90;;;16.70;91.90;;;;;;5061434;28;20036;-62
2021/09/25 03:57:49;;;;;;;10.05;7.03;;;16.70;91.90;;;;;;5081854;28;20054;-63
2021/09/25 04:00:14;;;;;;;9.65;6.95;;;16.70;91.90;;;;;;5057499;28;21545;-63
2021/09/25 04:02:40;;;;;;;9.80;7.20;;;16.70;91.90;;;;;;5063498;28;20086;-62
2021/09/25 04:05:06;;;;;;;7.40;6.70;;;16.60;91.90;;;;;;5074170;28;20529;-62
2021/09/25 04:07:32;;;;;;;7.18;6.47;;;16.60;91.90;;;;;;5056954;28;20050;-62
2021/09/25 04:09:57;;;;;;;7.47;6.40;;;16.60;91.90;;;;;;5055512;28;20848;-63
2021/09/25 04:12:23;;;;;;;6.95;6.25;;;16.60;91.90;;;;;;5080315;28;20028;-62
2021/09/25 04:14:48;;;;;;;7.55;6.22;;;16.60;92.00;;;;;;5076849;28;20024;-62
2021/09/25 04:17:14;;;;;;;9.90;6.32;;;16.60;91.90;;;;;;5088336;28;20035;-63
2021/09/25 04:19:39;;;;;;;9.95;6.28;;;16.60;91.90;;;;;;5058661;28;20072;-63
2021/09/25 04:22:05;;;;;;;7.95;6.55;;;16.60;91.90;;;;;;5091380;28;20498;-62
2021/09/25 04:24:30;;;;;;;8.27;6.20;;;16.50;91.90;;;;;;5063447;28;20177;-62
2021/09/25 04:26:56;;;;;;;8.43;6.30;;;16.50;91.90;;;;;;5071471;28;20047;-62
2021/09/25 04:29:21;;;;;;;7.22;6.28;;;16.50;91.90;;;;;;5062765;28;20125;-62
2021/09/25 04:31:47;;;;;;;10.57;6.13;;;16.50;91.90;;;;;;5064700;28;20051;-62
2021/09/25 04:34:13;;;;;;;9.60;6.53;;;16.50;91.90;;;;;;5081226;28;20554;-62
2021/09/25 04:36:40;;;;;;;8.57;6.43;;;16.50;91.90;;;;;;5076004;28;20043;-62
2021/09/25 04:39:06;;;;;;;7.45;6.30;;;16.50;91.90;;;;;;5081112;28;20024;-62
2021/09/25 04:41:31;;;;;;;8.18;5.68;;;16.50;92.00;;;;;;5076044;28;20038;-62
2021/09/25 04:43:57;;;;;;;7.43;6.05;;;16.50;92.00;;;;;;5064009;28;20040;-62
2021/09/25 04:46:22;;;;;;;11.27;6.30;;;16.40;91.90;;;;;;5096612;28;20112;-63
2021/09/25 04:48:48;;;;;;;15.05;6.35;;;16.40;91.90;;;;;;5085839;28;20101;-62
2021/09/25 04:51:14;;;;;;;8.23;6.57;;;16.40;91.90;;;;;;5059888;28;20059;-62
2021/09/25 04:53:40;;;;;;;11.57;6.47;;;16.50;91.90;;;;;;5082023;28;20033;-62
2021/09/25 04:56:05;;;;;;;9.60;5.75;;;16.40;91.90;;;;;;5081661;28;20046;-63
2021/09/25 04:58:31;;;;;;;18.60;7.13;;;16.40;91.90;;;;;;5092726;28;20026;-62
2021/09/25 05:00:56;;;;;;;16.00;6.75;;;16.40;92.00;;;;;;5085132;28;20936;-62
2021/09/25 05:03:22;;;;;;;14.13;5.97;;;16.40;92.00;;;;;;5084813;28;20043;-62
2021/09/25 05:05:48;;;;;;;10.48;6.03;;;16.30;92.00;;;;;;5090979;28;20020;-62
2021/09/25 05:08:13;;;;;;;18.02;7.00;;;16.40;92.00;;;;;;5091716;28;20043;-62
2021/09/25 05:10:39;;;;;;;16.83;6.18;;;16.40;92.00;;;;;;5090349;28;20028;-62
2021/09/25 05:13:04;;;;;;;16.88;6.35;;;16.40;91.90;;;;;;5071495;28;20039;-63
2021/09/25 05:15:30;;;;;;;8.57;6.05;;;16.30;92.00;;;;;;5088660;28;20032;-62
2021/09/25 05:17:55;;;;;;;13.27;6.30;;;16.30;92.00;;;;;;5075624;28;20056;-63
2021/09/25 05:20:21;;;;;;;13.45;6.63;;;16.30;92.00;;;;;;5070598;28;20062;-63
2021/09/25 05:22:46;;;;;;;11.18;6.07;;;16.30;92.00;;;;;;5085667;28;20088;-62
2021/09/25 05:25:12;;;;;;;17.15;7.50;;;16.30;92.00;;;;;;5073221;28;20311;-62
2021/09/25 05:27:38;;;;;;;9.05;6.43;;;16.30;92.00;;;;;;5063737;28;20090;-62
2021/09/25 05:30:04;;;;;;;17.08;7.50;;;16.30;92.10;;;;;;5040608;28;20041;-63
2021/09/25 05:32:30;;;;;;;25.27;7.90;;;16.30;92.10;;;;;;5057829;28;20386;-62
2021/09/25 05:34:55;;;;;;;25.77;7.28;;;16.30;92.30;;;;;;5059291;28;20155;-62
2021/09/25 05:37:21;;;;;;;22.52;8.45;;;16.30;92.30;;;;;;5060451;28;20471;-62
2021/09/25 05:39:46;;;;;;;23.27;7.18;;;16.30;92.30;;;;;;5041424;28;20087;-62
2021/09/25 05:42:15;;;;;;;25.02;8.35;;;16.30;92.30;;;;;;5060454;28;20396;-63
2021/09/25 05:44:45;;;;;;;26.60;7.85;;;16.30;92.30;;;;;;5039681;28;20131;-63
2021/09/25 05:47:12;;;;;;;18.23;6.88;;;16.20;92.30;;;;;;5059598;28;20029;-62
2021/09/25 05:49:37;;;;;;;23.55;7.63;;;16.20;92.30;;;;;;5055690;28;20120;-62
2021/09/25 05:52:04;;;;;;;30.67;7.90;;;16.20;92.30;;;;;;5069897;28;20500;-62
2021/09/25 05:54:30;;;;;;;23.70;7.43;;;16.20;92.40;;;;;;5058158;28;20039;-62
2021/09/25 05:56:55;;;;;;;24.15;7.32;;;16.20;92.70;;;;;;5068477;28;20363;-62
2021/09/25 05:59:21;;;;;;;22.60;8.20;;;16.20;92.40;;;;;;5062706;28;20473;-62
2021/09/25 06:01:46;;;;;;;30.73;9.23;;;16.20;92.50;;;;;;5059245;28;20116;-63
2021/09/25 06:04:12;;;;;;;39.65;8.70;;;16.20;92.40;;;;;;5039302;28;20035;-62
2021/09/25 06:06:37;;;;;;;33.00;8.73;;;16.20;92.40;;;;;;5070549;28;20110;-62
2021/09/25 06:09:03;;;;;;;36.33;8.52;;;16.20;92.40;;;;;;5055703;28;20150;-62
2021/09/25 06:11:28;;;;;;;37.55;9.43;;;16.20;92.40;;;;;;5043080;28;20035;-62
2021/09/25 06:13:54;;;;;;;38.20;8.40;;;16.20;92.40;;;;;;5056979;28;20484;-63
2021/09/25 06:16:19;;;;;;;23.67;8.70;;;16.20;92.40;;;;;;5042644;28;20024;-62
2021/09/25 06:18:45;;;;;;;22.35;8.38;;;16.20;92.40;;;;;;5055101;28;20033;-62
2021/09/25 06:21:11;;;;;;;30.67;8.85;;;16.20;92.40;;;;;;5022754;28;20037;-62
2021/09/25 06:23:36;;;;;;;24.25;7.95;;;16.20;92.40;;;;;;5062933;28;20124;-62
2021/09/25 06:26:03;;;;;;;18.30;8.20;;;16.20;92.40;;;;;;5083803;28;20111;-62
2021/09/25 06:28:29;;;;;;;21.00;8.55;;;16.20;92.40;;;;;;5086244;28;20032;-63
2021/09/25 06:30:55;;;;;;;26.60;8.70;;;16.20;92.50;;;;;;5086886;28;20008;-62
2021/09/25 06:33:20;;;;;;;27.55;9.00;;;16.20;92.50;;;;;;5085962;28;20090;-62
2021/09/25 06:35:47;;;;;;;19.63;7.85;;;16.20;92.50;;;;;;5069070;28;20035;-62
2021/09/25 06:38:13;;;;;;;14.25;7.95;;;16.20;92.60;;;;;;5046712;28;20980;-62
2021/09/25 06:40:38;;;;;;;23.25;8.73;;;16.20;92.60;;;;;;5084616;28;20043;-62
2021/09/25 06:43:04;;;;;;;17.25;7.93;;;16.20;92.70;;;;;;5049402;28;20051;-63
2021/09/25 06:45:34;;;;;;;21.63;8.32;;;16.20;92.70;;;;;;5054868;28;20116;-63
2021/09/25 06:48:00;;;;;;;20.20;8.85;;;16.20;92.70;;;;;;5070286;28;20050;-63
2021/09/25 06:50:25;;;;;;;17.67;9.27;;;16.10;92.70;;;;;;5063665;28;20476;-62
2021/09/25 06:52:51;;;;;;;15.02;8.77;;;16.20;92.80;;;;;;5057164;28;20036;-63
2021/09/25 06:55:16;;;;;;;18.33;9.13;;;16.10;92.70;;;;;;5082566;28;20023;-63
2021/09/25 06:57:42;;;;;;;17.38;9.15;;;16.20;92.80;;;;;;5085554;28;20024;-63
2021/09/25 07:00:08;;;;;;;18.13;9.40;;;16.20;92.90;;;;;;5064379;28;20032;-62
2021/09/25 07:02:37;;;;;;;21.50;9.20;;;16.20;92.90;;;;;;5082323;28;20035;-63
2021/09/25 07:05:03;;;;;;;24.98;10.27;;;16.20;93.00;;;;;;5047826;28;20246;-63
2021/09/25 07:07:29;;;;;;;20.90;10.00;;;16.00;93.00;;;;;;5075395;28;20468;-63
2021/09/25 07:09:55;;;;;;;22.05;11.52;;;16.20;93.20;;;;;;5081909;28;20043;-63
2021/09/25 07:12:20;;;;;;;14.80;9.95;;;16.10;93.30;;;;;;5084283;28;20020;-62
2021/09/25 07:14:46;;;;;;;18.08;11.15;;;16.10;93.30;;;;;;5045825;28;20127;-62
2021/09/25 07:17:11;;;;;;;16.08;11.15;;;16.10;93.40;;;;;;5078989;28;20036;-63
2021/09/25 07:19:37;;;;;;;16.33;11.38;;;16.10;93.30;;;;;;5061767;28;20104;-62
2021/09/25 07:22:02;;;;;;;18.70;10.60;;;16.10;93.40;;;;;;5081172;28;20040;-63
2021/09/25 07:24:28;;;;;;;18.55;11.27;;;16.10;93.40;;;;;;5077621;28;21010;-62
2021/09/25 07:26:53;;;;;;;16.58;11.80;;;16.20;93.40;;;;;;5055860;28;20094;-62
2021/09/25 07:29:19;;;;;;;18.10;10.82;;;16.10;93.40;;;;;;5074814;28;20856;-62
2021/09/25 07:31:46;;;;;;;19.02;12.23;;;16.10;93.40;;;;;;5090113;28;20112;-63
2021/09/25 07:34:11;;;;;;;17.38;11.43;;;16.10;93.50;;;;;;5086894;28;20043;-62
2021/09/25 07:36:37;;;;;;;20.30;11.27;;;16.10;93.60;;;;;;5085401;28;20029;-62
2021/09/25 07:39:03;;;;;;;14.52;11.05;;;16.10;93.60;;;;;;5077755;28;20182;-62
2021/09/25 07:41:28;;;;;;;19.63;12.00;;;16.10;93.80;;;;;;5084228;28;20392;-62
2021/09/25 07:43:54;;;;;;;17.75;11.13;;;16.10;93.80;;;;;;5095282;28;20040;-62
2021/09/25 07:46:19;;;;;;;15.48;11.05;;;16.10;93.80;;;;;;5088440;28;20044;-62
2021/09/25 07:48:45;;;;;;;19.38;12.43;;;16.10;93.90;;;;;;5097325;28;20122;-63
2021/09/25 07:51:10;;;;;;;17.30;11.88;;;16.10;93.80;;;;;;5090768;28;20028;-62
2021/09/25 07:53:36;;;;;;;16.08;12.05;;;16.10;93.80;;;;;;5070834;28;20104;-63
2021/09/25 07:56:01;;;;;;;18.65;12.45;;;16.10;93.90;;;;;;5073806;28;20066;-62
2021/09/25 07:58:27;;;;;;;17.27;11.98;;;16.20;94.00;;;;;;5082493;28;20111;-62
2021/09/25 08:00:52;;;;;;;18.98;12.82;;;16.10;93.90;;;;;;5081267;28;20027;-62
2021/09/25 08:03:18;;;;;;;28.23;13.27;;;16.20;94.00;;;;;;5081862;28;20028;-62
2021/09/25 08:05:44;;;;;;;27.90;14.10;;;16.20;94.00;;;;;;5085768;28;20023;-62
2021/09/25 08:08:10;;;;;;;23.23;13.43;;;16.20;94.30;;;;;;5060136;28;20061;-62
2021/09/25 08:10:35;;;;;;;21.98;13.35;;;16.20;94.20;;;;;;5071143;28;20082;-63
2021/09/25 08:13:01;;;;;;;20.98;12.85;;;16.30;94.30;;;;;;5081321;28;20498;-62
2021/09/25 08:15:26;;;;;;;24.83;12.80;;;16.20;94.30;;;;;;5085154;28;20043;-62
2021/09/25 08:17:52;;;;;;;27.67;14.45;;;16.20;94.30;;;;;;5088490;28;20029;-63
2021/09/25 08:20:17;;;;;;;43.33;14.63;;;16.30;94.60;;;;;;5078435;28;20111;-62
2021/09/25 08:22:43;;;;;;;37.92;14.70;;;16.30;94.30;;;;;;5059305;28;20036;-62
2021/09/25 08:25:09;;;;;;;56.88;15.85;;;16.30;94.70;;;;;;5064806;28;20982;-63
2021/09/25 08:27:35;;;;;;;51.05;15.25;;;16.30;94.60;;;;;;5097839;28;20059;-62
2021/09/25 08:30:01;;;;;;;55.80;16.08;;;16.30;94.50;;;;;;5087823;28;20059;-63
2021/09/25 08:32:27;;;;;;;51.42;16.02;;;16.30;94.50;;;;;;5068996;28;20776;-62
2021/09/25 08:34:52;;;;;;;75.10;17.17;;;16.40;95.10;;;;;;5069487;28;20036;-63
2021/09/25 08:37:18;;;;;;;49.53;16.42;;;16.40;95.30;;;;;;5062695;28;20139;-63
2021/09/25 08:39:43;;;;;;;64.47;16.27;;;16.40;95.10;;;;;;5070357;28;20126;-62
2021/09/25 08:42:15;;;;;;;63.88;18.90;;;16.50;95.20;;;;;;5095661;28;20032;-62
2021/09/25 08:44:42;;;;;;;93.03;20.60;;;16.50;95.80;;;;;;5072824;28;20031;-63
2021/09/25 08:47:08;;;;;;;87.25;19.20;;;16.50;95.80;;;;;;5072508;28;20047;-63
2021/09/25 08:49:33;;;;;;;78.20;17.80;;;16.50;95.80;;;;;;5059148;28;20475;-62
2021/09/25 08:51:59;;;;;;;71.43;19.33;;;16.50;95.70;;;;;;5090899;28;20044;-63
2021/09/25 08:54:24;;;;;;;83.82;20.13;;;16.60;95.80;;;;;;5066945;28;20036;-63
2021/09/25 08:56:50;;;;;;;75.38;18.83;;;16.60;95.60;;;;;;5093104;28;20031;-62
2021/09/25 08:59:15;;;;;;;66.38;17.95;;;16.70;95.60;;;;;;5061469;28;20047;-62
2021/09/25 09:01:43;;;;;;;103.53;21.13;;;16.70;95.70;;;;;;5086412;28;20039;-62
2021/09/25 09:04:08;;;;;;;89.78;19.85;;;16.70;95.70;;;;;;5058696;28;20047;-62
2021/09/25 09:06:37;;;;;;;94.97;20.30;;;16.70;95.80;;;;;;5081593;28;20460;-62
2021/09/25 09:09:05;;;;;;;92.90;19.50;;;16.80;95.90;;;;;;5081340;28;20656;-62
2021/09/25 09:11:30;;;;;;;94.22;21.25;;;16.80;96.00;;;;;;5068013;28;20050;-62
2021/09/25 09:14:00;;;;;;;104.82;21.67;;;16.80;95.90;;;;;;5081703;28;20028;-63
2021/09/25 09:16:26;;;;;;;103.07;21.38;;;16.80;95.90;;;;;;5100739;28;20028;-63
2021/09/25 09:18:51;;;;;;;102.07;22.25;;;16.90;96.10;;;;;;5080754;28;20039;-62
2021/09/25 09:21:25;;;;;;;100.63;22.88;;;16.90;96.00;;;;;;5079690;28;20024;-63
2021/09/25 09:23:54;;;;;;;104.25;20.33;;;16.90;96.10;;;;;;5069281;28;20074;-62
2021/09/25 09:26:25;;;;;;;102.47;20.17;;;17.00;96.10;;;;;;5070828;28;20024;-62
2021/09/25 09:28:53;;;;;;;98.35;21.23;;;17.00;96.00;;;;;;5084730;28;20065;-62
2021/09/25 09:31:18;;;;;;;143.50;24.27;;;17.10;95.90;;;;;;5066285;28;20127;-63
2021/09/25 09:33:48;;;;;;;134.20;25.13;;;17.10;95.90;;;;;;5059215;28;20110;-63
2021/09/25 09:36:43;;;;;;;136.40;25.67;;;17.20;96.00;;;;;;5057484;28;20028;-63
2021/09/25 09:39:09;;;;;;;140.18;24.52;;;17.20;96.00;;;;;;5055907;28;20044;-62
2021/09/25 09:41:43;;;;;;;143.20;24.63;;;17.20;95.70;;;;;;5078290;28;20043;-63
2021/09/25 09:44:09;;;;;;;167.85;24.48;;;17.30;95.50;;;;;;5078451;28;21126;-62
2021/09/25 09:46:38;;;;;;;130.68;24.05;;;17.40;95.20;;;;;;5065827;28;20161;-63
2021/09/25 09:49:04;;;;;;;166.18;24.33;;;17.40;95.10;;;;;;5070716;28;20028;-62
2021/09/25 09:51:52;;;;;;;144.10;24.38;;;17.50;95.00;;;;;;5061170;28;20032;-62
2021/09/25 09:54:18;;;;;;;149.50;23.88;;;17.50;95.00;;;;;;5051708;28;20032;-61
2021/09/25 09:56:44;;;;;;;183.77;25.48;;;17.50;95.00;;;;;;5063201;28;20083;-61
2021/09/25 09:59:11;;;;;;;155.18;25.33;;;17.50;94.90;;;;;;5054519;28;20017;-61
2021/09/25 10:01:37;;;;;;;132.43;23.10;;;17.60;95.00;;;;;;5055397;28;20024;-61
2021/09/25 10:04:03;;;;;;;133.43;21.13;;;17.60;94.70;;;;;;5067048;28;20525;-61
2021/09/25 10:06:28;;;;;;;154.93;24.13;;;17.70;94.60;;;;;;5045143;28;20093;-61
2021/09/25 10:08:54;;;;;;;139.43;23.05;;;17.70;94.50;;;;;;5064353;28;20028;-61
2021/09/25 10:11:21;;;;;;;153.13;23.95;;;17.80;94.50;;;;;;5054795;28;20042;-61
2021/09/25 10:13:47;;;;;;;176.57;26.83;;;17.80;94.20;;;;;;5080640;28;20166;-61
2021/09/25 10:16:13;;;;;;;139.13;22.77;;;17.90;94.20;;;;;;5068469;28;20591;-62
2021/09/25 10:18:39;;;;;;;158.95;24.10;;;17.90;94.20;;;;;;5076741;28;20024;-61
2021/09/25 10:21:08;;;;;;;153.02;23.40;;;17.90;94.10;;;;;;5055472;28;20030;-61
2021/09/25 10:23:33;;;;;;;152.68;22.85;;;18.00;93.80;;;;;;5087980;28;20179;-61
2021/09/25 10:25:59;;;;;;;155.07;24.17;;;18.00;93.80;;;;;;5050332;28;20420;-61
2021/09/25 10:28:29;;;;;;;171.68;23.55;;;18.10;93.70;;;;;;5055363;28;20033;-61
2021/09/25 10:30:55;;;;;;;131.23;21.67;;;18.10;93.50;;;;;;5042423;28;20031;-61
2021/09/25 10:33:22;;;;;;;151.07;20.95;;;18.20;93.40;;;;;;5074302;28;20028;-61
2021/09/25 10:35:48;;;;;;;103.38;17.92;;;18.20;93.20;;;;;;5059626;28;20036;-61
2021/09/25 10:38:14;;;;;;;113.63;18.65;;;18.30;93.10;;;;;;5072268;28;20122;-61
2021/09/25 10:40:40;;;;;;;151.18;20.08;;;18.30;93.00;;;;;;5084758;28;20036;-61
2021/09/25 10:43:23;;;;;;;111.38;18.42;;;18.30;92.90;;;;;;5047351;28;20387;-61
2021/09/25 10:45:55;;;;;;;127.13;19.38;;;18.40;92.90;;;;;;5047917;28;20020;-61
2021/09/25 10:48:26;;;;;;;125.93;20.77;;;18.50;92.70;;;;;;5083851;28;20043;-61
2021/09/25 10:51:08;;;;;;;114.68;17.33;;;18.50;92.50;;;;;;5077905;28;20038;-61
2021/09/25 10:53:37;;;;;;;121.38;18.38;;;18.60;92.40;;;;;;5060143;28;20078;-61
2021/09/25 10:56:04;;;;;;;118.05;18.02;;;18.60;92.30;;;;;;5063984;28;20044;-61
2021/09/25 10:58:34;;;;;;;114.32;16.20;;;18.60;92.10;;;;;;5062276;28;20031;-62
2021/09/25 11:01:13;;;;;;;106.82;16.77;;;18.70;92.00;;;;;;5072124;28;20028;-62
2021/09/25 11:03:47;;;;;;;110.20;16.38;;;18.80;91.80;;;;;;5067297;28;20021;-61
2021/09/25 11:06:13;;;;;;;105.85;17.60;;;18.80;91.60;;;;;;5079602;28;20131;-61
2021/09/25 11:09:02;;;;;;;117.97;17.10;;;18.80;91.60;;;;;;5075722;28;20700;-61
2021/09/25 11:11:31;;;;;;;116.68;16.23;;;18.90;91.50;;;;;;5051735;28;20032;-61
2021/09/25 11:14:02;;;;;;;96.93;15.23;;;18.90;91.40;;;;;;5077649;28;20016;-61
2021/09/25 11:16:52;;;;;;;95.43;16.38;;;18.90;91.30;;;;;;5074930;28;20040;-61
2021/09/25 11:19:20;;;;;;;110.63;15.50;;;18.90;91.20;;;;;;5071326;28;20371;-60
2021/09/25 11:21:56;;;;;;;88.32;13.93;;;19.00;91.00;;;;;;5078399;28;20028;-60
2021/09/25 11:24:22;;;;;;;91.95;14.65;;;19.00;90.90;;;;;;5061642;28;20096;-61
2021/09/25 11:26:47;;;;;;;76.40;14.80;;;19.10;90.80;;;;;;5068589;28;20036;-61
2021/09/25 11:29:13;;;;;;;95.65;14.88;;;19.20;90.70;;;;;;5074852;28;20037;-61
2021/09/25 11:31:38;;;;;;;89.25;15.07;;;19.20;90.70;;;;;;5075512;28;20031;-61
2021/09/25 11:34:26;;;;;;;86.72;13.95;;;19.20;90.50;;;;;;5058317;28;20028;-61
2021/09/25 11:36:53;;;;;;;81.72;13.40;;;19.30;90.50;;;;;;5061204;28;20071;-61
2021/09/25 11:39:43;;;;;;;70.80;12.60;;;19.30;90.30;;;;;;5072332;28;20564;-61
2021/09/25 11:42:10;;;;;;;61.70;12.13;;;19.40;90.20;;;;;;5066663;28;20036;-61
2021/09/25 11:44:42;;;;;;;81.35;13.20;;;19.40;90.10;;;;;;5077743;28;20048;-61
2021/09/25 11:47:08;;;;;;;106.80;14.27;;;19.50;90.10;;;;;;5055227;28;20463;-62
2021/09/25 11:49:35;;;;;;;75.03;12.98;;;19.50;90.10;;;;;;5045736;28;20143;-64
2021/09/25 11:52:00;;;;;;;100.43;13.13;;;19.60;89.70;;;;;;5053112;28;20028;-62
2021/09/25 11:54:26;;;;;;;94.00;13.30;;;19.70;89.50;;;;;;5074360;28;20044;-61
2021/09/25 11:56:51;;;;;;;92.43;13.20;;;19.70;89.50;;;;;;5079266;28;20029;-61
2021/09/25 11:59:20;;;;;;;97.10;13.07;;;19.80;89.50;;;;;;5061828;28;20388;-61
2021/09/25 12:01:46;;;;;;;82.78;13.20;;;19.90;88.90;;;;;;5076123;28;20020;-61
2021/09/25 12:04:11;;;;;;;91.50;13.50;;;19.90;88.90;;;;;;5075916;28;20032;-61
2021/09/25 12:06:50;;;;;;;95.43;13.80;;;20.00;88.70;;;;;;5060094;28;20058;-61
2021/09/25 12:09:16;;;;;;;78.57;13.50;;;20.00;88.30;;;;;;5055980;28;20035;-61
2021/09/25 12:11:41;;;;;;;153.77;16.60;;;20.10;88.30;;;;;;5058683;28;20025;-61
2021/09/25 12:14:07;;;;;;;124.28;14.55;;;20.20;88.40;;;;;;5077244;28;20017;-61
2021/09/25 12:16:32;;;;;;;121.53;15.80;;;20.20;88.10;;;;;;5059095;28;20483;-62
2021/09/25 12:18:58;;;;;;;100.65;14.90;;;20.20;87.90;;;;;;5056427;28;20032;-59
2021/09/25 12:21:24;;;;;;;86.60;14.57;;;20.30;87.80;;;;;;5061260;28;20052;-61
2021/09/25 12:23:56;;;;;;;99.20;14.63;;;20.30;87.80;;;;;;5075139;28;20048;-61
2021/09/25 12:26:24;;;;;;;110.50;14.05;;;20.40;87.60;;;;;;5080025;28;20064;-61
2021/09/25 12:28:54;;;;;;;104.18;15.75;;;20.40;87.40;;;;;;5063216;28;20092;-61
2021/09/25 12:31:36;;;;;;;86.13;13.07;;;20.40;87.50;;;;;;5072313;28;20039;-61